createdAt,value
2023-05-04T00:00:16.670Z,4.09
2023-05-04T00:02:18.093Z,4.09
2023-05-04T00:06:21.519Z,4.09
2023-05-04T00:12:25.702Z,4.09
2023-05-04T00:16:29.046Z,4.08
2023-05-04T00:18:30.433Z,4.09
2023-05-04T00:22:33.494Z,4.08
2023-05-04T00:26:36.636Z,4.08
2023-05-04T00:28:37.954Z,4.08
2023-05-04T00:32:40.860Z,4.09
2023-05-04T00:36:43.453Z,4.08
2023-05-04T00:38:44.809Z,4.08
2023-05-04T00:42:47.517Z,4.08
2023-05-04T00:44:49.047Z,4.08
2023-05-04T00:46:50.238Z,4.08
2023-05-04T00:48:51.814Z,4.08
2023-05-04T00:54:56.577Z,4.08
2023-05-04T00:56:58.292Z,4.08
2023-05-04T01:01:01.343Z,4.08
2023-05-04T01:05:04.667Z,4.08
2023-05-04T01:11:10.422Z,4.08
2023-05-04T01:15:13.761Z,4.08
2023-05-04T01:19:16.763Z,4.08
2023-05-04T01:21:18.635Z,4.08
2023-05-04T01:25:22.219Z,4.08
2023-05-04T01:27:24.137Z,4.08
2023-05-04T01:29:25.889Z,4.08
2023-05-04T01:31:27.226Z,4.08
2023-05-04T01:37:31.260Z,4.08
2023-05-04T01:43:35.649Z,4.08
2023-05-04T01:47:39.157Z,4.07
2023-05-04T01:51:42.963Z,4.07
2023-05-04T01:53:44.391Z,4.07
2023-05-04T01:57:47.536Z,4.08
2023-05-04T02:01:50.731Z,4.07
2023-05-04T02:03:52.601Z,4.07
2023-05-04T02:07:56.030Z,4.07
2023-05-04T02:09:57.304Z,4.07
2023-05-04T02:11:58.333Z,4.07
2023-05-04T02:13:59.394Z,4.07
2023-05-04T02:20:04.524Z,4.06
2023-05-04T02:22:05.935Z,4.07
2023-05-04T02:26:08.725Z,4.06
2023-05-04T02:30:11.951Z,4.07
2023-05-04T02:36:17.537Z,4.06
2023-05-04T02:40:20.364Z,4.06
2023-05-04T02:46:24.381Z,4.06
2023-05-04T02:50:26.432Z,4.06
2023-05-04T02:52:27.950Z,4.06
2023-05-04T02:56:31.190Z,4.06
2023-05-04T03:02:35.839Z,4.06
2023-05-04T03:08:39.890Z,4.06
2023-05-04T03:12:43.041Z,4.06
2023-05-04T03:18:46.342Z,4.06
2023-05-04T03:22:49.123Z,4.06
2023-05-04T03:24:50.714Z,4.06
2023-05-04T03:28:53.738Z,4.06
2023-05-04T03:32:57.192Z,4.06
2023-05-04T03:34:59.579Z,4.06
2023-05-04T03:39:04.127Z,4.06
2023-05-04T03:45:08.385Z,4.06
2023-05-04T03:49:19.199Z,4.05
2023-05-04T03:51:12.357Z,4.05
2023-05-04T03:55:15.137Z,4.05
2023-05-04T04:01:19.051Z,4.05
2023-05-04T04:05:21.660Z,4.05
2023-05-04T04:07:23.205Z,4.05
2023-05-04T04:11:26.747Z,4.05
2023-05-04T04:15:30.131Z,4.05
2023-05-04T04:17:31.395Z,4.05
2023-05-04T04:21:34.858Z,4.05
2023-05-04T04:27:39.977Z,4.04
2023-05-04T04:33:45.214Z,4.05
2023-05-04T04:37:48.709Z,4.04
2023-05-04T04:43:53.599Z,4.05
2023-05-04T04:47:56.369Z,4.04
2023-05-04T04:49:57.971Z,4.05
2023-05-04T04:54:00.344Z,4.04
2023-05-04T04:58:03.913Z,4.04
2023-05-04T05:00:06.020Z,4.04
2023-05-04T05:04:08.929Z,4.04
2023-05-04T05:10:13.569Z,4.05
2023-05-04T05:15:00.140Z,4.04
2023-05-04T05:17:01.436Z,4.05
2023-05-04T05:21:05.098Z,4.05
2023-05-04T05:25:08.049Z,4.05
2023-05-04T05:27:09.224Z,4.05
2023-05-04T05:31:12.337Z,4.06
2023-05-04T05:37:16.715Z,4.06
2023-05-04T05:43:20.917Z,4.07
2023-05-04T05:47:23.796Z,4.07
2023-05-04T05:53:27.858Z,4.07
2023-05-04T05:57:30.771Z,4.08
2023-05-04T05:59:32.324Z,4.08
2023-05-04T06:03:35.202Z,4.09
2023-05-04T06:07:38.334Z,4.08
2023-05-04T06:09:39.683Z,4.09
2023-05-04T06:13:41.948Z,4.1
2023-05-04T06:19:49.466Z,4.1
2023-05-04T06:23:49.950Z,4.11
2023-05-04T06:25:51.415Z,4.11
2023-05-04T06:29:54.482Z,4.13
2023-05-04T06:35:57.975Z,4.14
2023-05-04T06:42:02.677Z,4.15
2023-05-04T06:46:05.306Z,4.16
2023-05-04T06:52:08.646Z,4.16
2023-05-04T06:56:10.977Z,4.16
2023-05-04T07:02:15.234Z,4.17
2023-05-04T07:06:17.482Z,4.17
2023-05-04T07:08:18.462Z,4.17
2023-05-04T07:12:21.733Z,4.17
2023-05-04T07:18:26.616Z,4.18
2023-05-04T07:24:30.488Z,4.19
2023-05-04T07:28:33.250Z,4.19
2023-05-04T07:34:45.412Z,4.19
2023-05-04T07:38:40.153Z,4.19
2023-05-04T07:40:41.026Z,4.19
2023-05-04T07:44:44.099Z,4.19
2023-05-04T07:48:46.960Z,4.19
2023-05-04T07:50:47.881Z,4.19
2023-05-04T07:54:49.706Z,4.19
2023-05-04T08:00:53.571Z,4.2
2023-05-04T08:04:56.397Z,4.2
2023-05-04T08:06:57.231Z,4.2
2023-05-04T08:11:08.384Z,4.19
2023-05-04T08:17:04.000Z,4.2
2023-05-04T08:23:07.655Z,4.21
2023-05-04T08:27:10.315Z,4.19
2023-05-04T08:33:13.663Z,4.19
2023-05-04T08:37:16.532Z,4.18
2023-05-04T08:39:18.209Z,4.19
2023-05-04T08:43:21.221Z,4.18
2023-05-04T08:47:24.576Z,4.18
2023-05-04T08:49:25.709Z,4.19
2023-05-04T08:53:28.443Z,4.18
2023-05-04T08:59:33.354Z,4.18
2023-05-04T09:05:38.058Z,4.18
2023-05-04T09:09:40.827Z,4.18
2023-05-04T09:15:44.683Z,4.18
2023-05-04T09:19:47.039Z,4.18
2023-05-04T09:21:48.289Z,4.18
2023-05-04T09:25:50.690Z,4.18
2023-05-04T09:29:52.797Z,4.18
2023-05-04T09:31:53.621Z,4.17
2023-05-04T09:35:55.542Z,4.17
2023-05-04T09:41:59.888Z,4.17
2023-05-04T09:48:03.191Z,4.17
2023-05-04T09:52:06.656Z,4.17
2023-05-04T09:58:10.234Z,4.17
2023-05-04T10:02:21.640Z,4.17
2023-05-04T10:04:14.305Z,4.17
2023-05-04T10:08:16.850Z,4.17
2023-05-04T10:14:22.252Z,4.17
2023-05-04T10:18:25.344Z,4.17
2023-05-04T10:20:26.202Z,4.17
2023-05-04T10:24:28.894Z,4.17
2023-05-04T10:28:31.921Z,4.17
2023-05-04T10:30:33.032Z,4.17
2023-05-04T10:34:35.838Z,4.17
2023-05-04T10:40:39.571Z,4.16
2023-05-04T10:46:43.348Z,4.16
2023-05-04T10:50:45.294Z,4.17
2023-05-04T10:56:49.580Z,4.16
2023-05-04T11:00:51.226Z,4.16
2023-05-04T11:02:52.480Z,4.16
2023-05-04T11:06:55.586Z,4.16
2023-05-04T11:10:58.186Z,4.16
2023-05-04T11:12:59.562Z,4.16
2023-05-04T11:17:03.866Z,4.16
2023-05-04T11:23:06.351Z,4.16
2023-05-04T11:29:10.344Z,4.16
2023-05-04T11:33:12.686Z,4.16
2023-05-04T11:39:17.355Z,4.15
2023-05-04T11:43:20.579Z,4.16
2023-05-04T11:45:21.556Z,4.16
2023-05-04T11:49:24.329Z,4.15
2023-05-04T11:53:27.445Z,4.15
2023-05-04T11:55:28.976Z,4.16
2023-05-04T11:59:31.834Z,4.15
2023-05-04T12:00:15.513Z,4.15
2023-05-04T12:04:17.703Z,4.15
2023-05-04T12:06:18.633Z,4.15
2023-05-04T12:08:20.131Z,4.15
2023-05-04T12:10:21.578Z,4.15
2023-05-04T12:16:25.300Z,4.15
2023-05-04T12:18:26.491Z,4.15
2023-05-04T12:22:28.906Z,4.15
2023-05-04T12:26:32.574Z,4.15
2023-05-04T12:32:37.346Z,4.14
2023-05-04T12:36:39.728Z,4.14
2023-05-04T12:38:41.131Z,4.14
2023-05-04T12:42:44.273Z,4.14
2023-05-04T12:46:46.483Z,4.14
2023-05-04T12:48:48.081Z,4.14
2023-05-04T12:52:50.652Z,4.15
2023-05-04T12:58:54.843Z,4.14
2023-05-04T13:04:59.251Z,4.14
2023-05-04T13:09:02.401Z,4.14
2023-05-04T13:15:06.249Z,4.14
2023-05-04T13:19:08.741Z,4.14
2023-05-04T13:21:10.199Z,4.14
2023-05-04T13:25:12.511Z,4.14
2023-05-04T13:29:14.577Z,4.14
2023-05-04T13:31:16.028Z,4.14
2023-05-04T13:35:19.158Z,4.14
2023-05-04T13:41:23.903Z,4.14
2023-05-04T13:47:28.657Z,4.14
2023-05-04T13:51:30.953Z,4.13
2023-05-04T13:57:35.372Z,4.13
2023-05-04T14:01:37.806Z,4.17
2023-05-04T14:03:39.019Z,4.17
2023-05-04T14:07:41.423Z,4.17
2023-05-04T14:11:44.854Z,4.17
2023-05-04T14:13:45.627Z,4.18
2023-05-04T14:17:48.040Z,4.18
2023-05-04T14:21:50.880Z,4.19
2023-05-04T14:23:52.055Z,4.19
2023-05-04T14:27:54.733Z,4.19
2023-05-04T14:29:55.830Z,4.19
2023-05-04T14:31:57.226Z,4.19
2023-05-04T14:33:58.457Z,4.19
2023-05-04T14:40:01.691Z,4.19
2023-05-04T14:42:03.001Z,4.19
2023-05-04T14:46:05.010Z,4.19
2023-05-04T14:50:08.269Z,4.2
2023-05-04T14:56:11.515Z,4.19
2023-05-04T15:00:14.353Z,4.2
2023-05-04T15:02:15.956Z,4.2
2023-05-04T15:06:19.009Z,4.2
2023-05-04T15:10:22.330Z,4.2
2023-05-04T15:12:23.305Z,4.2
2023-05-04T15:16:26.003Z,4.2
2023-05-04T15:22:30.020Z,4.19
2023-05-04T15:28:33.832Z,4.19
2023-05-04T15:32:35.589Z,4.19
2023-05-04T15:38:40.109Z,4.19
2023-05-04T15:42:43.374Z,4.18
2023-05-04T15:44:44.282Z,4.19
2023-05-04T15:48:46.678Z,4.18
2023-05-04T15:52:48.564Z,4.18
2023-05-04T15:54:50.077Z,4.18
2023-05-04T15:58:53.104Z,4.18
2023-05-04T16:02:56.229Z,4.18
2023-05-04T16:04:57.820Z,4.18
2023-05-04T16:09:00.424Z,4.18
2023-05-04T16:11:01.953Z,4.18
2023-05-04T16:15:04.952Z,4.18
2023-05-04T16:21:08.380Z,4.17
2023-05-04T16:27:12.228Z,4.17
2023-05-04T16:31:15.135Z,4.17
2023-05-04T16:37:17.879Z,4.17
2023-05-04T16:41:20.288Z,4.17
2023-05-04T16:43:22.103Z,4.17
2023-05-04T16:47:25.318Z,4.17
2023-05-04T16:51:28.214Z,4.17
2023-05-04T16:53:29.613Z,4.17
2023-05-04T16:57:32.563Z,4.17
2023-05-04T17:03:36.966Z,4.17
2023-05-04T17:09:41.746Z,4.17
2023-05-04T17:13:44.297Z,4.17
2023-05-04T17:19:48.672Z,4.17
2023-05-04T17:23:50.560Z,4.16
2023-05-04T17:25:51.514Z,4.17
2023-05-04T17:29:53.513Z,4.16
2023-05-04T17:33:55.508Z,4.17
2023-05-04T17:35:56.799Z,4.17
2023-05-04T17:39:59.308Z,4.16
2023-05-04T17:46:03.557Z,4.16
2023-05-04T17:52:07.648Z,4.16
2023-05-04T17:56:10.913Z,4.16
2023-05-04T18:02:14.680Z,4.16
2023-05-04T18:08:18.663Z,4.16
2023-05-04T18:12:21.285Z,4.16
2023-05-04T18:16:23.937Z,4.16
2023-05-04T18:18:24.836Z,4.16
2023-05-04T18:22:27.692Z,4.16
2023-05-04T18:26:30.945Z,4.16
2023-05-04T18:28:32.638Z,4.16
2023-05-04T18:32:35.922Z,4.16
2023-05-04T18:34:36.976Z,4.16
2023-05-04T18:36:38.721Z,4.16
2023-05-04T18:38:40.498Z,4.16
2023-05-04T18:44:45.203Z,4.16
2023-05-04T18:45:29.016Z,4.15
2023-05-04T18:49:31.559Z,4.16
2023-05-04T18:55:35.514Z,4.15
2023-05-04T18:59:37.742Z,4.15
2023-05-04T19:01:38.848Z,4.16
2023-05-04T19:05:41.287Z,4.16
2023-05-04T19:09:43.827Z,4.15
2023-05-04T19:11:45.196Z,4.15
2023-05-04T19:15:48.151Z,4.15
2023-05-04T19:21:51.631Z,4.15
2023-05-04T19:27:54.783Z,4.14
2023-05-04T19:31:59.493Z,4.14
2023-05-04T19:38:02.442Z,4.14
2023-05-04T19:42:05.589Z,4.14
2023-05-04T19:44:06.626Z,4.14
2023-05-04T19:48:10.217Z,4.14
2023-05-04T19:52:13.143Z,4.14
2023-05-04T19:54:14.982Z,4.14
2023-05-04T19:58:18.008Z,4.14
2023-05-04T20:04:22.556Z,4.14
2023-05-04T20:10:27.058Z,4.14
2023-05-04T20:14:29.297Z,4.14
2023-05-04T20:20:33.321Z,4.14
2023-05-04T20:24:36.276Z,4.14
2023-05-04T20:26:37.611Z,4.14
2023-05-04T20:30:40.520Z,4.14
2023-05-04T20:34:43.297Z,4.14
2023-05-04T20:36:44.427Z,4.14
2023-05-04T20:40:47.605Z,4.13
2023-05-04T20:44:51.239Z,4.13
2023-05-04T20:46:53.137Z,4.13
2023-05-04T20:51:03.106Z,4.13
2023-05-04T20:52:56.780Z,4.13
2023-05-04T20:54:57.879Z,4.13
2023-05-04T20:56:59.547Z,4.13
2023-05-04T21:03:03.097Z,4.13
2023-05-04T21:09:07.835Z,4.13
2023-05-04T21:13:10.326Z,4.13
2023-05-04T21:19:14.566Z,4.13
2023-05-04T21:23:17.111Z,4.13
2023-05-04T21:25:18.359Z,4.13
2023-05-04T21:29:21.824Z,4.13
2023-05-04T21:33:24.741Z,4.12
2023-05-04T21:35:27.427Z,4.12
2023-05-04T21:39:29.460Z,4.12
2023-05-04T21:45:33.075Z,4.12
2023-05-04T21:51:37.783Z,4.12
2023-05-04T21:55:40.554Z,4.12
2023-05-04T22:01:43.924Z,4.12
2023-05-04T22:05:47.277Z,4.12
2023-05-04T22:07:49.019Z,4.12
2023-05-04T22:11:52.804Z,4.12
2023-05-04T22:15:55.831Z,4.12
2023-05-04T22:17:57.251Z,4.12
2023-05-04T22:22:00.350Z,4.12
2023-05-04T22:28:05.215Z,4.12
2023-05-04T22:34:09.748Z,4.12
2023-05-04T22:38:14.455Z,4.11
2023-05-04T22:44:17.725Z,4.12
2023-05-04T22:48:20.955Z,4.11
2023-05-04T22:50:22.062Z,4.11
2023-05-04T22:58:27.689Z,4.11
2023-05-04T23:00:28.827Z,4.11
2023-05-04T23:04:31.583Z,4.11
2023-05-04T23:06:33.493Z,4.11
2023-05-04T23:10:36.336Z,4.11
2023-05-04T23:16:40.616Z,4.11
2023-05-04T23:22:45.236Z,4.1
2023-05-04T23:26:48.807Z,4.11
2023-05-04T23:30:51.299Z,4.1
2023-05-04T23:32:52.544Z,4.1
2023-05-04T23:36:54.936Z,4.11
2023-05-04T23:40:57.638Z,4.1
2023-05-04T23:42:59.215Z,4.1
2023-05-04T23:47:02.940Z,4.1
2023-05-04T23:49:04.501Z,4.1
2023-05-04T23:53:07.616Z,4.1
2023-05-04T23:59:11.096Z,4.1
